createdAt,value
2018-12-31T00:01:41.989Z,19.47
2018-12-31T00:04:11.210Z,19.37
2018-12-31T00:06:40.447Z,19.33
2018-12-31T00:09:09.676Z,18.50
2018-12-31T00:11:38.868Z,18.77
2018-12-31T00:14:08.121Z,19.57
2018-12-31T00:16:37.408Z,20.37
2018-12-31T00:19:06.724Z,18.73
2018-12-31T00:21:35.996Z,19.13
2018-12-31T00:24:05.183Z,18.37
2018-12-31T00:26:34.493Z,18.43
2018-12-31T00:29:03.689Z,20.70
2018-12-31T00:31:32.936Z,17.97
2018-12-31T00:34:02.127Z,20.73
2018-12-31T00:36:31.347Z,20.87
2018-12-31T00:39:00.570Z,22.93
2018-12-31T00:41:29.796Z,19.17
2018-12-31T00:43:59.074Z,21.87
2018-12-31T00:46:28.296Z,23.13
2018-12-31T00:48:57.512Z,22.20
2018-12-31T00:51:26.769Z,22.07
2018-12-31T00:53:55.984Z,21.30
2018-12-31T00:56:25.211Z,21.23
2018-12-31T00:58:54.523Z,20.50
2018-12-31T01:01:23.765Z,20.47
2018-12-31T01:03:52.976Z,20.90
2018-12-31T01:06:22.204Z,21.30
2018-12-31T01:08:51.410Z,19.87
2018-12-31T01:11:20.760Z,20.73
2018-12-31T01:13:49.976Z,21.27
2018-12-31T01:16:19.209Z,21.17
2018-12-31T01:18:48.438Z,22.10
2018-12-31T01:21:17.668Z,21.93
2018-12-31T01:23:46.888Z,21.13
2018-12-31T01:26:16.072Z,23.23
2018-12-31T01:28:45.300Z,23.07
2018-12-31T01:31:14.516Z,21.07
2018-12-31T01:33:43.751Z,23.67
2018-12-31T01:36:12.948Z,23.30
2018-12-31T01:38:42.153Z,23.73
2018-12-31T01:41:11.376Z,24.30
2018-12-31T01:43:40.594Z,22.13
2018-12-31T01:46:09.840Z,24.53
2018-12-31T01:48:39.040Z,24.33
2018-12-31T01:51:11.421Z,21.73
2018-12-31T01:53:39.170Z,22.80
2018-12-31T01:56:08.415Z,23.17
2018-12-31T01:58:37.609Z,23.27
2018-12-31T02:01:06.893Z,23.33
2018-12-31T02:03:36.362Z,23.83
2018-12-31T02:06:05.644Z,18.73
2018-12-31T02:08:34.889Z,24.27
2018-12-31T02:11:04.085Z,23.37
2018-12-31T02:13:33.318Z,23.70
2018-12-31T02:16:02.652Z,24.33
2018-12-31T02:18:31.868Z,24.40
2018-12-31T02:21:01.086Z,23.93
2018-12-31T02:23:30.349Z,26.17
2018-12-31T02:25:59.575Z,24.50
2018-12-31T02:28:28.780Z,25.30
2018-12-31T02:30:59.782Z,26.77
2018-12-31T02:33:29.006Z,28.83
2018-12-31T02:35:58.242Z,28.17
2018-12-31T02:38:27.472Z,28.00
2018-12-31T02:40:56.700Z,24.57
2018-12-31T02:43:25.901Z,23.43
2018-12-31T02:45:55.236Z,22.93
2018-12-31T02:48:24.477Z,23.30
2018-12-31T02:50:53.699Z,22.70
2018-12-31T02:53:22.930Z,23.93
2018-12-31T02:55:52.178Z,20.77
2018-12-31T02:58:21.369Z,21.80
2018-12-31T03:00:50.602Z,19.87
2018-12-31T03:03:19.848Z,19.53
2018-12-31T03:05:49.108Z,19.90
2018-12-31T03:08:18.405Z,20.87
2018-12-31T03:10:47.626Z,18.77
2018-12-31T03:13:16.880Z,19.27
2018-12-31T03:15:46.216Z,18.40
2018-12-31T03:18:15.449Z,20.53
2018-12-31T03:20:44.668Z,16.53
2018-12-31T03:23:13.924Z,17.50
2018-12-31T03:25:43.154Z,21.20
2018-12-31T03:28:12.424Z,14.90
2018-12-31T03:30:41.582Z,14.77
2018-12-31T03:33:10.807Z,20.93
2018-12-31T03:35:40.049Z,18.40
2018-12-31T03:38:09.275Z,21.93
2018-12-31T03:40:38.489Z,18.00
2018-12-31T03:43:07.720Z,19.13
2018-12-31T03:45:36.917Z,18.13
2018-12-31T03:48:06.153Z,17.80
2018-12-31T03:50:35.350Z,20.67
2018-12-31T03:53:04.672Z,28.47
2018-12-31T03:55:33.969Z,29.63
2018-12-31T03:58:03.320Z,27.17
2018-12-31T04:00:32.555Z,30.93
2018-12-31T04:03:01.913Z,27.87
2018-12-31T04:05:31.237Z,27.17
2018-12-31T04:08:00.514Z,28.47
2018-12-31T04:10:29.752Z,30.13
2018-12-31T04:12:59.000Z,26.17
2018-12-31T04:15:28.244Z,26.20
2018-12-31T04:17:57.509Z,24.13
2018-12-31T04:20:26.751Z,24.63
2018-12-31T04:22:55.997Z,29.23
2018-12-31T04:25:25.224Z,30.17
2018-12-31T04:27:54.466Z,32.17
2018-12-31T04:30:23.770Z,29.80
2018-12-31T04:32:53.117Z,30.33
2018-12-31T04:35:22.401Z,32.07
2018-12-31T04:37:51.605Z,31.80
2018-12-31T04:40:20.835Z,33.40
2018-12-31T04:42:50.091Z,35.23
2018-12-31T04:45:19.313Z,33.67
2018-12-31T04:47:48.553Z,29.23
2018-12-31T04:50:17.805Z,34.20
2018-12-31T04:52:47.102Z,32.50
2018-12-31T04:55:16.349Z,34.17
2018-12-31T04:57:45.578Z,33.33
2018-12-31T05:00:14.804Z,35.90
2018-12-31T05:02:44.069Z,25.27
2018-12-31T05:05:13.329Z,31.33
2018-12-31T05:07:42.622Z,32.47
2018-12-31T05:10:11.872Z,26.73
2018-12-31T05:12:41.095Z,32.10
2018-12-31T05:15:10.345Z,26.03
2018-12-31T05:17:39.623Z,28.87
2018-12-31T05:20:08.861Z,28.37
2018-12-31T05:22:38.111Z,33.63
2018-12-31T05:25:07.424Z,27.70
2018-12-31T05:27:36.662Z,27.70
2018-12-31T05:30:05.893Z,28.27
2018-12-31T05:32:35.141Z,27.23
2018-12-31T05:35:04.360Z,27.13
2018-12-31T05:37:33.623Z,31.77
2018-12-31T05:40:02.822Z,26.77
2018-12-31T05:42:32.072Z,27.40
2018-12-31T05:45:01.314Z,29.77
2018-12-31T05:47:30.565Z,26.03
2018-12-31T05:49:59.814Z,28.37
2018-12-31T05:52:29.040Z,26.23
2018-12-31T05:54:58.299Z,29.77
2018-12-31T05:57:27.529Z,29.00
2018-12-31T05:59:56.781Z,24.60
2018-12-31T06:02:25.993Z,26.37
2018-12-31T06:04:55.505Z,29.63
2018-12-31T06:07:24.721Z,24.80
2018-12-31T06:09:53.950Z,22.67
2018-12-31T06:12:23.270Z,25.00
2018-12-31T06:14:52.735Z,28.30
2018-12-31T06:17:21.969Z,27.67
2018-12-31T06:19:51.210Z,29.50
2018-12-31T06:22:20.440Z,22.37
2018-12-31T06:24:49.674Z,29.27
2018-12-31T06:27:18.937Z,25.27
2018-12-31T06:29:48.150Z,28.20
2018-12-31T06:32:17.409Z,29.10
2018-12-31T06:34:46.601Z,25.00
2018-12-31T06:37:15.872Z,28.50
2018-12-31T06:39:45.161Z,27.47
2018-12-31T06:42:14.421Z,23.93
2018-12-31T06:44:43.669Z,27.90
2018-12-31T06:47:12.927Z,27.03
2018-12-31T06:49:42.137Z,27.80
2018-12-31T06:52:11.389Z,25.60
2018-12-31T06:54:40.617Z,26.57
2018-12-31T06:57:09.871Z,27.10
2018-12-31T06:59:39.097Z,25.13
2018-12-31T07:02:08.347Z,26.73
2018-12-31T07:04:37.551Z,27.53
2018-12-31T07:07:06.796Z,28.30
2018-12-31T07:09:36.029Z,27.47
2018-12-31T07:12:05.286Z,26.77
2018-12-31T07:14:34.516Z,25.77
2018-12-31T07:17:03.798Z,26.50
2018-12-31T07:19:33.106Z,25.37
2018-12-31T07:22:02.336Z,24.47
2018-12-31T07:24:31.607Z,26.80
2018-12-31T07:27:00.864Z,26.50
2018-12-31T07:29:30.123Z,22.53
2018-12-31T07:31:59.454Z,27.77
2018-12-31T07:34:28.683Z,26.20
2018-12-31T07:36:58.037Z,25.27
2018-12-31T07:39:27.335Z,25.63
2018-12-31T07:41:56.608Z,27.17
2018-12-31T07:44:25.920Z,24.30
2018-12-31T07:46:55.149Z,23.37
2018-12-31T07:49:24.428Z,25.73
2018-12-31T07:51:53.660Z,24.97
2018-12-31T07:54:22.880Z,25.27
2018-12-31T07:56:52.126Z,24.80
2018-12-31T07:59:21.453Z,22.57
2018-12-31T08:01:50.762Z,22.90
2018-12-31T08:04:19.980Z,25.40
2018-12-31T08:06:49.232Z,25.13
2018-12-31T08:09:18.438Z,25.33
2018-12-31T08:11:47.680Z,26.03
2018-12-31T08:14:16.910Z,24.67
2018-12-31T08:16:46.191Z,24.27
2018-12-31T08:19:15.433Z,22.63
2018-12-31T08:21:44.692Z,24.03
2018-12-31T08:24:14.764Z,22.90
2018-12-31T08:26:44.037Z,24.33
2018-12-31T08:29:13.355Z,21.53
2018-12-31T08:31:42.571Z,23.67
2018-12-31T08:34:11.814Z,23.30
2018-12-31T08:36:41.058Z,24.27
2018-12-31T08:39:10.304Z,20.87
2018-12-31T08:41:39.557Z,19.70
2018-12-31T08:44:08.907Z,20.13
2018-12-31T08:46:38.113Z,20.50
2018-12-31T08:49:07.361Z,21.30
2018-12-31T08:51:36.599Z,23.50
2018-12-31T08:54:05.955Z,21.63
2018-12-31T08:56:35.160Z,23.10
2018-12-31T08:59:04.513Z,27.27
2018-12-31T09:01:33.724Z,19.27
2018-12-31T09:04:03.024Z,19.47
2018-12-31T09:06:32.273Z,18.83
2018-12-31T09:09:01.529Z,20.63
2018-12-31T09:11:30.789Z,17.50
2018-12-31T09:14:00.013Z,20.67
2018-12-31T09:16:29.412Z,14.90
2018-12-31T09:18:58.717Z,18.90
2018-12-31T09:21:27.968Z,16.53
2018-12-31T09:23:57.208Z,17.73
2018-12-31T09:26:26.508Z,16.73
2018-12-31T09:28:55.723Z,17.67
2018-12-31T09:31:24.988Z,18.67
2018-12-31T09:33:54.209Z,15.37
2018-12-31T09:36:23.453Z,15.90
2018-12-31T09:38:52.699Z,16.90
2018-12-31T09:41:21.920Z,19.43
2018-12-31T09:43:51.161Z,18.57
2018-12-31T09:46:20.399Z,18.23
2018-12-31T09:48:49.637Z,18.10
2018-12-31T09:51:18.854Z,15.40
2018-12-31T09:53:48.105Z,15.00
2018-12-31T09:56:17.312Z,17.17
2018-12-31T09:58:46.544Z,18.77
2018-12-31T10:01:15.791Z,18.23
2018-12-31T10:03:45.034Z,16.67
2018-12-31T10:06:14.267Z,18.60
2018-12-31T10:08:49.234Z,18.00
2018-12-31T10:11:14.381Z,15.53
2018-12-31T10:13:43.703Z,16.67
2018-12-31T10:16:12.952Z,16.43
2018-12-31T10:18:42.206Z,16.20
2018-12-31T10:21:11.449Z,17.30
2018-12-31T10:23:40.673Z,13.03
2018-12-31T10:26:09.933Z,16.80
2018-12-31T10:28:39.252Z,14.03
2018-12-31T10:31:08.563Z,15.27
2018-12-31T10:33:37.779Z,16.07
2018-12-31T10:36:07.118Z,15.37
2018-12-31T10:38:36.378Z,12.87
2018-12-31T10:41:05.660Z,12.73
2018-12-31T10:43:34.888Z,11.37
2018-12-31T10:46:04.113Z,11.40
2018-12-31T10:48:33.377Z,9.53
2018-12-31T10:51:02.714Z,9.47
2018-12-31T10:53:31.947Z,8.27
2018-12-31T10:56:01.291Z,8.67
2018-12-31T10:58:30.558Z,8.30
2018-12-31T11:00:59.773Z,7.70
2018-12-31T11:03:29.065Z,7.27
2018-12-31T11:05:58.379Z,7.60
2018-12-31T11:08:27.641Z,6.77
2018-12-31T11:10:56.872Z,7.03
2018-12-31T11:13:26.149Z,6.10
2018-12-31T11:15:55.396Z,7.10
2018-12-31T11:18:24.644Z,7.83
2018-12-31T11:20:53.856Z,6.90
2018-12-31T11:23:23.104Z,8.33
2018-12-31T11:25:52.317Z,9.30
2018-12-31T11:28:21.552Z,8.43
2018-12-31T11:30:51.710Z,8.27
2018-12-31T11:33:21.008Z,7.50
2018-12-31T11:35:50.365Z,7.87
2018-12-31T11:38:19.595Z,8.03
2018-12-31T11:40:48.848Z,7.57
2018-12-31T11:43:18.064Z,8.67
2018-12-31T11:45:47.316Z,8.07
2018-12-31T11:48:16.560Z,8.27
2018-12-31T11:50:45.813Z,8.40
2018-12-31T11:53:15.068Z,8.47
2018-12-31T11:55:44.392Z,8.93
2018-12-31T11:58:13.633Z,8.57
2018-12-31T12:00:42.980Z,10.13
2018-12-31T12:03:12.214Z,11.53
2018-12-31T12:05:41.448Z,9.97
2018-12-31T12:08:10.688Z,10.47
2018-12-31T12:10:40.011Z,9.97
2018-12-31T12:13:09.294Z,10.37
2018-12-31T12:15:38.551Z,10.60
2018-12-31T12:18:07.774Z,11.67
2018-12-31T12:20:37.091Z,10.00
2018-12-31T12:23:06.312Z,9.80
2018-12-31T12:25:35.668Z,10.10
2018-12-31T12:28:05.303Z,12.13
2018-12-31T12:30:34.536Z,11.40
2018-12-31T12:33:03.788Z,10.77
2018-12-31T12:35:32.988Z,10.30
2018-12-31T12:38:02.323Z,14.20
2018-12-31T12:40:31.541Z,10.53
2018-12-31T12:43:00.864Z,11.07
2018-12-31T12:45:30.196Z,10.63
2018-12-31T12:47:59.460Z,11.93
2018-12-31T12:50:28.743Z,10.40
2018-12-31T12:52:58.380Z,10.30
2018-12-31T12:55:27.732Z,11.27
2018-12-31T12:57:56.966Z,11.60
2018-12-31T13:00:26.267Z,11.83
2018-12-31T13:02:55.506Z,11.17
2018-12-31T13:05:24.965Z,12.07
2018-12-31T13:07:54.250Z,10.37
2018-12-31T13:10:23.437Z,12.27
2018-12-31T13:12:52.669Z,12.13
2018-12-31T13:15:21.880Z,10.13
2018-12-31T13:17:51.244Z,9.80
2018-12-31T13:20:20.587Z,9.23
2018-12-31T13:22:49.946Z,7.90
2018-12-31T13:25:19.174Z,9.50
2018-12-31T13:27:48.528Z,9.50
2018-12-31T13:30:17.728Z,8.93
2018-12-31T13:32:46.948Z,8.90
2018-12-31T13:35:16.191Z,8.53
2018-12-31T13:37:45.482Z,9.17
2018-12-31T13:40:14.759Z,8.67
2018-12-31T13:42:43.985Z,10.30
2018-12-31T13:45:13.345Z,9.17
2018-12-31T13:47:42.547Z,9.73
2018-12-31T13:50:11.807Z,10.40
2018-12-31T13:52:41.138Z,10.60
2018-12-31T13:55:10.370Z,12.00
2018-12-31T13:57:39.585Z,10.23
2018-12-31T14:00:09.825Z,9.37
2018-12-31T14:02:39.075Z,10.27
2018-12-31T14:05:08.693Z,10.97
2018-12-31T14:07:37.905Z,11.57
2018-12-31T14:10:07.253Z,11.20
2018-12-31T14:12:36.567Z,10.40
2018-12-31T14:15:08.315Z,11.53
2018-12-31T14:17:37.562Z,11.83
2018-12-31T14:20:06.909Z,10.93
2018-12-31T14:22:36.209Z,10.77
2018-12-31T14:25:05.577Z,11.37
2018-12-31T14:27:34.909Z,9.43
2018-12-31T14:30:04.737Z,10.73
2018-12-31T14:32:33.975Z,10.10
2018-12-31T14:35:03.206Z,10.40
2018-12-31T14:37:32.421Z,9.37
2018-12-31T14:40:01.690Z,11.00
2018-12-31T14:42:30.940Z,10.17
2018-12-31T14:45:00.172Z,11.33
2018-12-31T14:47:29.402Z,11.03
2018-12-31T14:49:58.649Z,11.83
2018-12-31T14:52:27.998Z,11.77
2018-12-31T14:54:57.269Z,11.57
2018-12-31T14:57:26.545Z,10.43
2018-12-31T14:59:55.881Z,11.37
2018-12-31T15:02:25.184Z,12.13
2018-12-31T15:04:54.425Z,13.00
2018-12-31T15:07:23.892Z,12.63
2018-12-31T15:09:53.352Z,12.10
2018-12-31T15:12:22.632Z,12.80
2018-12-31T15:14:52.343Z,13.00
2018-12-31T15:17:22.031Z,12.97
2018-12-31T15:19:51.339Z,14.93
2018-12-31T15:22:20.566Z,15.47
2018-12-31T15:24:49.818Z,15.30
2018-12-31T15:27:19.123Z,14.90
2018-12-31T15:29:48.636Z,14.00
2018-12-31T15:32:17.874Z,13.50
2018-12-31T15:34:47.125Z,13.13
2018-12-31T15:37:16.316Z,14.70
2018-12-31T15:39:45.652Z,24.30
2018-12-31T15:42:15.168Z,41.37
2018-12-31T15:44:44.413Z,44.47
2018-12-31T15:47:13.691Z,22.63
2018-12-31T15:49:42.961Z,14.37
2018-12-31T15:52:12.152Z,13.83
2018-12-31T15:54:41.725Z,12.57
2018-12-31T15:57:11.058Z,12.53
2018-12-31T15:59:40.321Z,12.47
2018-12-31T16:02:09.565Z,11.43
2018-12-31T16:04:38.802Z,12.50
2018-12-31T16:07:08.221Z,12.13
2018-12-31T16:09:37.494Z,12.13
2018-12-31T16:12:06.712Z,10.00
2018-12-31T16:14:36.016Z,14.13
2018-12-31T16:17:05.357Z,11.00
2018-12-31T16:19:34.600Z,10.10
2018-12-31T16:22:03.833Z,15.27
2018-12-31T16:24:33.077Z,9.70
2018-12-31T16:27:02.353Z,8.60
2018-12-31T16:29:31.569Z,9.00
2018-12-31T16:32:00.821Z,9.50
2018-12-31T16:34:30.041Z,12.87
2018-12-31T16:36:59.294Z,9.40
2018-12-31T16:39:28.588Z,9.53
2018-12-31T16:41:57.869Z,15.47
2018-12-31T16:44:27.157Z,10.50
2018-12-31T16:46:56.494Z,14.27
2018-12-31T16:49:25.743Z,14.40
2018-12-31T16:52:02.516Z,14.23
2018-12-31T16:54:25.897Z,11.90
2018-12-31T16:56:55.138Z,13.90
2018-12-31T16:59:24.357Z,45.93
2018-12-31T17:01:53.594Z,36.73
2018-12-31T17:04:22.921Z,146.87
2018-12-31T17:06:52.154Z,24.40
2018-12-31T17:09:21.419Z,16.03
2018-12-31T17:11:50.737Z,12.77
2018-12-31T17:14:19.978Z,11.87
2018-12-31T17:16:49.248Z,19.23
2018-12-31T17:19:18.498Z,14.03
2018-12-31T17:21:47.752Z,10.07
2018-12-31T17:24:16.967Z,14.20
2018-12-31T17:26:46.194Z,9.33
2018-12-31T17:29:15.412Z,9.43
2018-12-31T17:31:44.723Z,11.13
2018-12-31T17:34:14.041Z,9.10
2018-12-31T17:36:43.239Z,10.90
2018-12-31T17:39:12.476Z,8.97
2018-12-31T17:41:41.799Z,9.60
2018-12-31T17:44:12.017Z,11.13
2018-12-31T17:46:41.451Z,11.40
2018-12-31T17:49:10.697Z,9.53
2018-12-31T17:51:39.929Z,9.83
2018-12-31T17:54:09.173Z,9.77
2018-12-31T17:56:38.410Z,8.57
2018-12-31T17:59:07.750Z,9.13
2018-12-31T18:01:36.961Z,8.60
2018-12-31T18:04:06.177Z,9.33
2018-12-31T18:06:35.460Z,7.90
2018-12-31T18:09:07.089Z,8.00
2018-12-31T18:11:36.321Z,7.53
2018-12-31T18:14:05.550Z,7.87
2018-12-31T18:16:34.786Z,13.97
2018-12-31T18:19:04.149Z,7.77
2018-12-31T18:21:33.390Z,10.00
2018-12-31T18:24:02.608Z,11.17
2018-12-31T18:26:31.831Z,8.63
2018-12-31T18:29:01.065Z,10.67
2018-12-31T18:31:30.349Z,11.00
2018-12-31T18:33:59.577Z,13.10
2018-12-31T18:36:28.831Z,9.27
2018-12-31T18:38:58.573Z,7.60
2018-12-31T18:41:27.832Z,8.30
2018-12-31T18:43:57.066Z,10.07
2018-12-31T18:46:26.348Z,8.63
2018-12-31T18:48:55.669Z,9.03
2018-12-31T18:51:25.256Z,10.07
2018-12-31T18:53:54.517Z,9.80
2018-12-31T18:56:23.738Z,14.23
2018-12-31T18:58:52.980Z,14.33
2018-12-31T19:01:22.298Z,12.53
2018-12-31T19:03:51.516Z,10.67
2018-12-31T19:06:20.741Z,10.27
2018-12-31T19:08:50.080Z,10.27
2018-12-31T19:11:19.293Z,9.40
2018-12-31T19:13:48.533Z,8.40
2018-12-31T19:16:17.814Z,15.37
2018-12-31T19:18:47.065Z,10.27
2018-12-31T19:21:16.285Z,8.10
2018-12-31T19:23:45.532Z,8.77
2018-12-31T19:26:14.708Z,7.70
2018-12-31T19:28:43.950Z,7.77
2018-12-31T19:31:13.246Z,7.40
2018-12-31T19:33:42.477Z,9.13
2018-12-31T19:36:11.781Z,10.17
2018-12-31T19:38:40.997Z,29.40
2018-12-31T19:41:10.269Z,11.43
2018-12-31T19:43:39.481Z,8.97
2018-12-31T19:46:08.742Z,22.57
2018-12-31T19:48:37.949Z,9.03
2018-12-31T19:51:07.189Z,10.83
2018-12-31T19:53:36.469Z,11.17
2018-12-31T19:56:05.710Z,10.20
2018-12-31T19:58:34.949Z,11.03
2018-12-31T20:01:04.212Z,15.33
2018-12-31T20:03:33.813Z,26.03
2018-12-31T20:06:03.072Z,17.13
2018-12-31T20:08:32.313Z,13.97
2018-12-31T20:11:01.546Z,16.40
2018-12-31T20:13:30.811Z,19.17
2018-12-31T20:16:00.077Z,15.90
2018-12-31T20:18:29.316Z,17.17
2018-12-31T20:20:58.546Z,17.30
2018-12-31T20:23:27.826Z,16.93
2018-12-31T20:25:57.049Z,18.67
2018-12-31T20:28:26.597Z,18.67
2018-12-31T20:30:55.869Z,21.73
2018-12-31T20:33:25.152Z,22.73
2018-12-31T20:35:54.450Z,21.03
2018-12-31T20:38:23.710Z,20.03
2018-12-31T20:40:52.976Z,24.03
2018-12-31T20:43:22.230Z,17.80
2018-12-31T20:45:51.594Z,16.20
2018-12-31T20:48:20.849Z,20.63
2018-12-31T20:50:50.070Z,21.23
2018-12-31T20:53:19.304Z,18.07
2018-12-31T20:55:48.825Z,16.00
2018-12-31T20:58:18.041Z,18.90
2018-12-31T21:00:47.272Z,19.53
2018-12-31T21:03:16.501Z,17.17
2018-12-31T21:05:45.833Z,16.93
2018-12-31T21:08:15.360Z,19.37
2018-12-31T21:10:44.599Z,29.20
2018-12-31T21:13:13.864Z,19.67
2018-12-31T21:15:43.066Z,20.33
2018-12-31T21:18:12.377Z,14.80
2018-12-31T21:20:41.921Z,11.23
2018-12-31T21:23:11.166Z,12.50
2018-12-31T21:25:40.409Z,11.97
2018-12-31T21:28:09.661Z,14.20
2018-12-31T21:30:38.889Z,14.60
2018-12-31T21:33:08.444Z,13.83
2018-12-31T21:35:37.693Z,12.23
2018-12-31T21:38:06.940Z,10.50
2018-12-31T21:40:36.133Z,9.67
2018-12-31T21:43:05.376Z,12.93
2018-12-31T21:45:34.694Z,11.03
2018-12-31T21:48:03.897Z,9.87
2018-12-31T21:50:33.120Z,10.20
2018-12-31T21:53:02.359Z,10.40
2018-12-31T21:55:31.686Z,11.83
2018-12-31T21:58:00.893Z,10.90
2018-12-31T22:00:30.131Z,15.13
2018-12-31T22:02:59.370Z,12.70
2018-12-31T22:05:28.636Z,11.80
2018-12-31T22:07:57.993Z,11.40
2018-12-31T22:10:27.213Z,11.63
2018-12-31T22:12:56.521Z,10.33
2018-12-31T22:15:25.728Z,13.67
2018-12-31T22:17:55.019Z,14.13
2018-12-31T22:20:24.290Z,12.40
2018-12-31T22:22:53.503Z,14.57
2018-12-31T22:25:22.761Z,15.73
2018-12-31T22:27:52.001Z,16.30
2018-12-31T22:30:21.220Z,17.33
2018-12-31T22:32:50.463Z,15.53
2018-12-31T22:35:19.753Z,17.23
2018-12-31T22:37:49.199Z,15.77
2018-12-31T22:40:18.573Z,17.17
2018-12-31T22:42:47.700Z,17.07
2018-12-31T22:45:16.968Z,20.03
2018-12-31T22:47:46.209Z,21.07
2018-12-31T22:50:15.768Z,21.43
2018-12-31T22:52:45.018Z,23.70
2018-12-31T22:55:14.310Z,21.37
2018-12-31T22:57:43.624Z,27.00
2018-12-31T23:00:12.974Z,40.23
2018-12-31T23:02:42.287Z,108.33
2018-12-31T23:05:13.244Z,119.73
2018-12-31T23:07:42.818Z,166.83
2018-12-31T23:10:12.075Z,226.30
2018-12-31T23:12:41.282Z,263.07
2018-12-31T23:15:14.273Z,122.07
2018-12-31T23:17:43.524Z,157.77
2018-12-31T23:20:13.138Z,163.43
2018-12-31T23:22:42.336Z,209.57
2018-12-31T23:25:11.897Z,93.10
2018-12-31T23:27:41.129Z,102.57
2018-12-31T23:30:10.690Z,120.60
2018-12-31T23:32:40.036Z,93.53
2018-12-31T23:35:09.656Z,84.57
2018-12-31T23:37:41.500Z,54.17
2018-12-31T23:40:10.796Z,66.57
2018-12-31T23:42:40.060Z,78.07
2018-12-31T23:45:10.866Z,51.00
2018-12-31T23:47:40.135Z,42.27
2018-12-31T23:50:10.640Z,29.87
2018-12-31T23:52:39.849Z,37.43
2018-12-31T23:55:09.097Z,22.80
2018-12-31T23:57:38.325Z,22.63
